createdAt,value
2018-11-13T00:00:30.626Z,60.83
2018-11-13T00:02:59.701Z,60.60
2018-11-13T00:05:28.593Z,59.87
2018-11-13T00:07:57.336Z,61.13
2018-11-13T00:10:25.982Z,61.80
2018-11-13T00:12:54.686Z,60.90
2018-11-13T00:15:23.376Z,60.80
2018-11-13T00:17:52.014Z,60.57
2018-11-13T00:20:20.900Z,55.30
2018-11-13T00:22:49.619Z,59.70
2018-11-13T00:25:19.261Z,58.23
2018-11-13T00:27:47.966Z,57.07
2018-11-13T00:30:17.980Z,57.30
2018-11-13T00:32:53.390Z,56.53
2018-11-13T00:35:22.545Z,54.37
2018-11-13T00:37:51.365Z,53.97
2018-11-13T00:40:20.133Z,54.60
2018-11-13T00:42:49.373Z,53.27
2018-11-13T00:45:18.124Z,54.97
2018-11-13T00:47:46.853Z,57.83
2018-11-13T00:50:20.830Z,57.33
2018-11-13T00:52:49.892Z,57.23
2018-11-13T00:55:18.723Z,56.27
2018-11-13T00:57:48.225Z,55.97
2018-11-13T01:00:18.572Z,54.27
2018-11-13T01:02:47.257Z,51.70
2018-11-13T01:05:17.132Z,54.50
2018-11-13T01:07:47.006Z,56.80
2018-11-13T01:10:16.780Z,53.77
2018-11-13T01:12:46.161Z,55.53
2018-11-13T01:15:15.885Z,53.03
2018-11-13T01:17:45.388Z,52.43
2018-11-13T01:20:14.847Z,54.80
2018-11-13T01:22:43.572Z,55.77
2018-11-13T01:25:13.260Z,52.73
2018-11-13T01:27:42.486Z,53.20
2018-11-13T01:30:12.493Z,53.77
2018-11-13T01:32:41.997Z,52.13
2018-11-13T01:35:14.991Z,53.57
2018-11-13T01:37:43.721Z,53.70
2018-11-13T01:40:14.700Z,55.10
2018-11-13T01:42:43.823Z,57.33
2018-11-13T01:45:13.847Z,59.07
2018-11-13T01:47:42.589Z,57.73
2018-11-13T01:50:11.708Z,56.70
2018-11-13T01:52:40.334Z,53.67
2018-11-13T01:55:10.974Z,55.07
2018-11-13T01:57:39.681Z,57.50
2018-11-13T02:00:24.091Z,55.47
2018-11-13T02:02:54.001Z,51.57
2018-11-13T02:05:23.877Z,55.23
2018-11-13T02:07:53.599Z,52.43
2018-11-13T02:10:22.517Z,53.07
2018-11-13T02:12:52.007Z,52.10
2018-11-13T02:15:21.239Z,52.60
2018-11-13T02:17:49.985Z,51.63
2018-11-13T02:20:20.050Z,52.77
2018-11-13T02:22:48.755Z,53.07
2018-11-13T02:25:18.579Z,55.97
2018-11-13T02:27:47.692Z,57.20
2018-11-13T02:30:17.701Z,52.77
2018-11-13T02:32:47.025Z,56.27
2018-11-13T02:35:16.171Z,54.47
2018-11-13T02:37:44.998Z,55.77
2018-11-13T02:40:13.875Z,53.40
2018-11-13T02:42:42.594Z,57.20
2018-11-13T02:45:14.902Z,54.67
2018-11-13T02:47:43.785Z,56.10
2018-11-13T02:50:14.692Z,57.17
2018-11-13T02:52:43.403Z,57.10
2018-11-13T02:55:12.660Z,56.57
2018-11-13T02:57:41.807Z,55.80
2018-11-13T03:00:13.101Z,55.37
2018-11-13T03:02:41.762Z,51.27
2018-11-13T03:05:12.741Z,52.87
2018-11-13T03:07:41.635Z,51.77
2018-11-13T03:10:11.850Z,55.03
2018-11-13T03:12:40.532Z,57.60
2018-11-13T03:15:11.167Z,58.87
2018-11-13T03:17:39.859Z,65.03
2018-11-13T03:20:10.936Z,66.07
2018-11-13T03:22:39.918Z,61.77
2018-11-13T03:25:12.042Z,56.07
2018-11-13T03:27:40.733Z,58.47
2018-11-13T03:30:12.766Z,52.90
2018-11-13T03:32:41.802Z,55.63
2018-11-13T03:35:10.453Z,52.60
2018-11-13T03:37:39.101Z,53.30
2018-11-13T03:40:08.573Z,56.43
2018-11-13T03:42:37.500Z,51.93
2018-11-13T03:45:07.043Z,49.93
2018-11-13T03:47:35.850Z,49.67
2018-11-13T03:50:04.865Z,52.60
2018-11-13T03:52:33.589Z,50.70
2018-11-13T03:55:02.301Z,50.43
2018-11-13T03:57:30.929Z,46.87
2018-11-13T03:59:59.665Z,48.13
2018-11-13T04:02:28.341Z,48.83
2018-11-13T04:04:57.039Z,42.07
2018-11-13T04:07:25.713Z,46.90
2018-11-13T04:09:54.495Z,44.73
2018-11-13T04:12:23.146Z,43.93
2018-11-13T04:14:51.815Z,41.97
2018-11-13T04:17:20.496Z,48.37
2018-11-13T04:19:49.197Z,51.53
2018-11-13T04:22:17.880Z,47.27
2018-11-13T04:24:46.526Z,49.87
2018-11-13T04:27:15.178Z,48.10
2018-11-13T04:29:43.833Z,49.33
2018-11-13T04:32:12.493Z,52.47
2018-11-13T04:34:41.167Z,50.77
2018-11-13T04:37:09.900Z,52.53
2018-11-13T04:39:38.567Z,53.60
2018-11-13T04:42:07.827Z,56.20
2018-11-13T04:44:36.546Z,56.27
2018-11-13T04:47:05.661Z,59.03
2018-11-13T04:49:34.310Z,57.70
2018-11-13T04:52:02.995Z,65.50
2018-11-13T04:54:31.613Z,70.80
2018-11-13T04:57:00.257Z,73.73
2018-11-13T04:59:28.919Z,74.47
2018-11-13T05:01:57.591Z,68.70
2018-11-13T05:04:26.359Z,69.03
2018-11-13T05:06:55.013Z,65.60
2018-11-13T05:09:23.685Z,68.17
2018-11-13T05:11:52.405Z,71.57
2018-11-13T05:14:21.125Z,73.43
2018-11-13T05:16:50.494Z,67.60
2018-11-13T05:19:19.295Z,64.40
2018-11-13T05:21:47.999Z,67.20
2018-11-13T05:24:16.686Z,73.73
2018-11-13T05:26:45.325Z,80.67
2018-11-13T05:29:14.053Z,82.47
2018-11-13T05:31:42.712Z,81.37
2018-11-13T05:34:11.393Z,75.43
2018-11-13T05:36:40.068Z,86.17
2018-11-13T05:39:10.041Z,91.70
2018-11-13T05:41:38.779Z,87.63
2018-11-13T05:44:07.741Z,86.23
2018-11-13T05:46:36.461Z,91.07
2018-11-13T05:49:05.309Z,103.23
2018-11-13T05:51:33.938Z,100.00
2018-11-13T05:54:02.630Z,94.67
2018-11-13T05:56:31.260Z,94.93
2018-11-13T05:59:00.046Z,88.73
2018-11-13T06:01:28.741Z,81.73
2018-11-13T06:03:57.447Z,81.70
2018-11-13T06:06:26.121Z,91.73
2018-11-13T06:08:54.881Z,84.00
2018-11-13T06:11:23.598Z,89.50
2018-11-13T06:13:52.276Z,79.50
2018-11-13T06:16:21.039Z,79.23
2018-11-13T06:18:49.736Z,79.07
2018-11-13T06:21:18.548Z,76.97
2018-11-13T06:23:47.282Z,83.73
2018-11-13T06:26:16.328Z,84.30
2018-11-13T06:28:44.980Z,85.40
2018-11-13T06:31:13.650Z,90.73
2018-11-13T06:33:42.309Z,85.23
2018-11-13T06:36:10.978Z,81.80
2018-11-13T06:38:39.726Z,80.33
2018-11-13T06:41:08.385Z,69.00
2018-11-13T06:43:37.310Z,75.10
2018-11-13T06:46:06.483Z,68.77
2018-11-13T06:48:35.130Z,58.37
2018-11-13T06:51:04.082Z,65.37
2018-11-13T06:54:58.442Z,49.53
2018-11-13T06:57:27.213Z,49.47
2018-11-13T06:59:55.889Z,50.93
2018-11-13T07:02:24.537Z,53.47
2018-11-13T07:04:53.207Z,51.33
2018-11-13T07:07:21.900Z,52.87
2018-11-13T07:09:50.577Z,54.33
2018-11-13T07:12:19.261Z,51.50
2018-11-13T07:14:47.900Z,54.93
2018-11-13T07:17:16.521Z,50.63
2018-11-13T07:19:45.229Z,51.23
2018-11-13T07:22:13.909Z,49.53
2018-11-13T07:24:42.579Z,49.97
2018-11-13T07:27:11.209Z,49.17
2018-11-13T07:29:39.849Z,48.87
2018-11-13T07:32:08.489Z,48.97
2018-11-13T07:34:37.121Z,49.53
2018-11-13T07:37:06.178Z,48.73
2018-11-13T07:39:34.922Z,46.83
2018-11-13T07:42:03.653Z,49.17
2018-11-13T07:44:32.313Z,53.23
2018-11-13T07:47:01.107Z,55.50
2018-11-13T07:49:30.091Z,49.63
2018-11-13T07:51:58.769Z,54.33
2018-11-13T07:54:27.462Z,49.27
2018-11-13T07:56:56.433Z,49.50
2018-11-13T07:59:25.052Z,48.63
2018-11-13T08:01:53.690Z,48.97
2018-11-13T08:04:22.403Z,49.37
2018-11-13T08:06:51.135Z,48.87
2018-11-13T08:09:19.749Z,47.07
2018-11-13T08:11:48.456Z,49.50
2018-11-13T08:14:17.094Z,53.10
2018-11-13T08:16:45.825Z,54.60
2018-11-13T08:19:14.504Z,55.20
2018-11-13T08:21:43.157Z,56.50
2018-11-13T08:24:11.764Z,57.30
2018-11-13T08:26:40.482Z,59.87
2018-11-13T08:29:09.296Z,60.20
2018-11-13T08:31:37.958Z,58.57
2018-11-13T08:34:06.860Z,62.23
2018-11-13T08:36:35.537Z,61.43
2018-11-13T08:39:05.419Z,57.07
2018-11-13T08:41:34.100Z,60.67
2018-11-13T08:44:02.868Z,61.20
2018-11-13T08:46:31.507Z,62.20
2018-11-13T08:49:00.186Z,62.77
2018-11-13T08:51:28.941Z,60.80
2018-11-13T08:53:57.675Z,54.50
2018-11-13T08:56:26.646Z,53.13
2018-11-13T08:58:55.337Z,56.43
2018-11-13T09:01:24.095Z,58.50
2018-11-13T09:03:52.753Z,54.97
2018-11-13T09:06:21.417Z,57.73
2018-11-13T09:08:50.142Z,56.87
2018-11-13T09:11:19.110Z,56.63
2018-11-13T09:13:47.868Z,56.13
2018-11-13T09:16:16.923Z,54.17
2018-11-13T09:18:45.644Z,47.90
2018-11-13T09:21:14.394Z,46.30
2018-11-13T09:23:43.097Z,46.00
2018-11-13T09:26:11.733Z,44.50
2018-11-13T09:28:40.403Z,41.33
2018-11-13T09:31:09.090Z,44.00
2018-11-13T09:33:37.704Z,47.23
2018-11-13T09:36:06.522Z,45.27
2018-11-13T09:38:35.157Z,44.53
2018-11-13T09:41:03.856Z,41.17
2018-11-13T09:43:32.485Z,38.77
2018-11-13T09:46:01.435Z,38.37
2018-11-13T09:48:30.107Z,39.13
2018-11-13T09:50:58.874Z,34.33
2018-11-13T09:53:27.655Z,35.17
2018-11-13T09:55:56.226Z,35.63
2018-11-13T09:58:24.872Z,35.57
2018-11-13T10:00:53.957Z,34.17
2018-11-13T10:03:22.894Z,33.07
2018-11-13T10:05:51.149Z,27.80
2018-11-13T10:08:19.872Z,33.27
2018-11-13T10:10:48.615Z,32.53
2018-11-13T10:13:17.748Z,32.30
2018-11-13T10:15:46.453Z,31.07
2018-11-13T10:18:15.207Z,26.10
2018-11-13T10:20:43.870Z,31.03
2018-11-13T10:23:12.545Z,32.70
2018-11-13T10:25:41.149Z,31.43
2018-11-13T10:28:09.923Z,27.90
2018-11-13T10:30:38.561Z,26.60
2018-11-13T10:33:07.230Z,28.43
2018-11-13T10:35:36.125Z,28.80
2018-11-13T10:38:04.850Z,23.73
2018-11-13T10:40:33.675Z,25.40
2018-11-13T10:43:02.220Z,23.47
2018-11-13T10:45:30.825Z,25.30
2018-11-13T10:47:59.488Z,24.20
2018-11-13T10:50:28.216Z,22.93
2018-11-13T10:52:56.923Z,26.53
2018-11-13T10:55:25.568Z,25.60
2018-11-13T10:57:54.275Z,23.67
2018-11-13T11:00:28.182Z,26.57
2018-11-13T11:03:02.026Z,23.47
2018-11-13T11:05:30.674Z,22.10
2018-11-13T11:07:59.355Z,24.53
2018-11-13T11:10:28.033Z,20.53
2018-11-13T11:12:56.803Z,23.00
2018-11-13T11:15:25.365Z,20.90
2018-11-13T11:17:53.992Z,22.90
2018-11-13T11:20:22.710Z,19.87
2018-11-13T11:22:51.586Z,20.40
2018-11-13T11:25:20.306Z,18.57
2018-11-13T11:27:48.904Z,20.07
2018-11-13T11:30:17.760Z,20.23
2018-11-13T11:32:46.403Z,18.77
2018-11-13T11:35:15.054Z,18.83
2018-11-13T11:37:43.714Z,20.30
2018-11-13T11:40:12.904Z,19.30
2018-11-13T11:42:41.584Z,19.77
2018-11-13T11:45:12.243Z,18.17
2018-11-13T11:47:41.008Z,20.73
2018-11-13T11:50:10.666Z,18.67
2018-11-13T11:52:39.363Z,20.33
2018-11-13T11:55:08.569Z,21.37
2018-11-13T11:57:37.198Z,21.27
2018-11-13T12:00:13.162Z,20.33
2018-11-13T12:02:43.197Z,18.10
2018-11-13T12:05:11.845Z,19.30
2018-11-13T12:07:40.545Z,17.87
2018-11-13T12:10:11.424Z,19.57
2018-11-13T12:12:40.379Z,17.33
2018-11-13T12:15:10.267Z,17.83
2018-11-13T12:17:38.979Z,18.53
2018-11-13T12:20:09.319Z,18.87
2018-11-13T12:22:38.013Z,18.37
2018-11-13T12:25:09.091Z,21.00
2018-11-13T12:27:38.154Z,19.77
2018-11-13T12:30:12.185Z,20.47
2018-11-13T12:32:40.850Z,19.70
2018-11-13T12:35:11.301Z,20.20
2018-11-13T12:37:40.070Z,18.93
2018-11-13T12:40:10.974Z,19.67
2018-11-13T12:42:39.684Z,17.33
2018-11-13T12:45:09.132Z,19.63
2018-11-13T12:47:37.790Z,20.20
2018-11-13T12:50:07.914Z,19.90
2018-11-13T12:52:36.618Z,18.13
2018-11-13T12:55:06.917Z,18.33
2018-11-13T12:57:35.580Z,19.10
2018-11-13T13:00:07.689Z,17.20
2018-11-13T13:02:36.357Z,18.10
2018-11-13T13:05:05.386Z,18.27
2018-11-13T13:07:34.058Z,19.70
2018-11-13T13:10:02.689Z,19.87
2018-11-13T13:12:31.362Z,19.27
2018-11-13T13:15:00.078Z,19.00
2018-11-13T13:17:28.790Z,17.70
2018-11-13T13:19:57.476Z,18.57
2018-11-13T13:22:26.235Z,18.07
2018-11-13T13:24:54.904Z,17.77
2018-11-13T13:27:23.655Z,18.67
2018-11-13T13:29:52.421Z,16.83
2018-11-13T13:32:21.105Z,19.00
2018-11-13T13:34:49.729Z,18.40
2018-11-13T13:37:18.363Z,18.90
2018-11-13T13:39:47.044Z,17.13
2018-11-13T13:42:15.722Z,16.37
2018-11-13T13:44:44.427Z,17.90
2018-11-13T13:47:13.114Z,18.80
2018-11-13T13:49:41.786Z,18.90
2018-11-13T13:52:10.427Z,17.60
2018-11-13T13:54:39.067Z,17.83
2018-11-13T13:57:07.730Z,18.03
2018-11-13T13:59:36.461Z,19.00
2018-11-13T14:02:05.213Z,20.53
2018-11-13T14:04:33.890Z,19.03
2018-11-13T14:07:02.494Z,19.23
2018-11-13T14:09:31.138Z,17.97
2018-11-13T14:11:59.762Z,18.47
2018-11-13T14:14:28.426Z,18.97
2018-11-13T14:16:57.082Z,17.27
2018-11-13T14:19:25.802Z,16.57
2018-11-13T14:21:54.512Z,16.70
2018-11-13T14:24:23.218Z,16.57
2018-11-13T14:26:51.877Z,18.90
2018-11-13T14:29:20.550Z,19.17
2018-11-13T14:31:49.271Z,19.50
2018-11-13T14:34:17.943Z,21.73
2018-11-13T14:36:46.600Z,22.33
2018-11-13T14:39:15.278Z,20.67
2018-11-13T14:41:43.892Z,21.73
2018-11-13T14:44:12.504Z,22.20
2018-11-13T14:46:41.322Z,21.50
2018-11-13T14:49:09.837Z,21.90
2018-11-13T14:51:38.525Z,22.33
2018-11-13T14:54:07.247Z,23.90
2018-11-13T14:56:35.914Z,24.37
2018-11-13T14:59:04.584Z,24.63
2018-11-13T15:01:33.254Z,24.97
2018-11-13T15:04:01.965Z,25.27
2018-11-13T15:06:30.690Z,27.90
2018-11-13T15:08:59.779Z,28.50
2018-11-13T15:11:28.051Z,30.77
2018-11-13T15:13:56.679Z,30.47
2018-11-13T15:16:25.390Z,31.27
2018-11-13T15:18:54.054Z,32.27
2018-11-13T15:21:22.753Z,33.30
2018-11-13T15:23:51.419Z,33.37
2018-11-13T15:26:20.158Z,33.13
2018-11-13T15:28:48.805Z,36.83
2018-11-13T15:31:17.459Z,36.87
2018-11-13T15:33:46.170Z,34.60
2018-11-13T15:36:14.889Z,37.83
2018-11-13T15:38:43.615Z,38.10
2018-11-13T15:41:12.505Z,36.63
2018-11-13T15:43:41.436Z,37.50
2018-11-13T15:46:10.130Z,37.67
2018-11-13T15:48:38.801Z,39.13
2018-11-13T15:51:09.122Z,37.67
2018-11-13T15:53:36.204Z,34.67
2018-11-13T15:56:04.892Z,37.70
2018-11-13T15:58:33.692Z,37.80
2018-11-13T16:01:02.341Z,40.60
2018-11-13T16:03:35.602Z,44.77
2018-11-13T16:06:04.356Z,34.77
2018-11-13T16:08:32.949Z,39.13
2018-11-13T16:11:01.620Z,39.17
2018-11-13T16:13:30.321Z,36.43
2018-11-13T16:15:58.954Z,37.47
2018-11-13T16:18:28.965Z,36.70
2018-11-13T16:20:57.594Z,40.57
2018-11-13T16:23:26.213Z,41.17
2018-11-13T16:25:54.883Z,49.57
2018-11-13T16:28:23.554Z,49.63
2018-11-13T16:30:52.525Z,46.43
2018-11-13T16:33:21.005Z,43.03
2018-11-13T16:35:49.751Z,45.17
2018-11-13T16:38:18.572Z,48.93
2018-11-13T16:40:47.096Z,45.07
2018-11-13T16:43:15.772Z,42.63
2018-11-13T16:45:44.398Z,45.73
2018-11-13T16:48:13.128Z,45.33
2018-11-13T16:50:43.496Z,44.33
2018-11-13T16:53:12.301Z,44.70
2018-11-13T16:55:46.022Z,40.50
2018-11-13T16:58:15.720Z,39.03
2018-11-13T17:00:44.538Z,41.20
2018-11-13T17:03:13.147Z,39.73
2018-11-13T17:05:41.962Z,39.73
2018-11-13T17:08:10.659Z,39.40
2018-11-13T17:10:41.277Z,38.87
2018-11-13T17:13:10.447Z,38.53
2018-11-13T17:15:39.334Z,39.33
2018-11-13T17:18:08.196Z,39.27
2018-11-13T17:20:37.667Z,39.97
2018-11-13T17:23:06.523Z,41.07
2018-11-13T17:25:36.745Z,43.90
2018-11-13T17:28:05.631Z,43.03
2018-11-13T17:30:37.519Z,44.63
2018-11-13T17:33:08.540Z,46.33
2018-11-13T17:35:37.986Z,47.03
2018-11-13T17:38:07.034Z,51.00
2018-11-13T17:40:36.662Z,49.27
2018-11-13T17:43:06.703Z,50.53
2018-11-13T17:45:36.640Z,54.27
2018-11-13T17:48:06.033Z,48.40
2018-11-13T17:50:37.535Z,54.33
2018-11-13T17:53:07.233Z,51.23
2018-11-13T17:55:35.913Z,50.30
2018-11-13T17:58:06.472Z,56.10
2018-11-13T18:00:36.330Z,57.67
2018-11-13T18:03:05.981Z,56.13
2018-11-13T18:05:35.182Z,53.40
2018-11-13T18:08:04.592Z,59.17
2018-11-13T18:10:34.006Z,54.30
2018-11-13T18:13:02.702Z,53.00
2018-11-13T18:15:31.671Z,54.10
2018-11-13T18:18:00.455Z,53.17
2018-11-13T18:20:30.497Z,53.70
2018-11-13T18:22:59.137Z,51.23
2018-11-13T18:25:28.190Z,52.27
2018-11-13T18:27:57.838Z,53.00
2018-11-13T18:30:29.315Z,55.07
2018-11-13T18:32:58.718Z,61.97
2018-11-13T18:35:29.681Z,67.10
2018-11-13T18:37:59.315Z,75.37
2018-11-13T18:40:28.140Z,68.40
2018-11-13T18:42:58.149Z,74.67
2018-11-13T18:45:29.206Z,72.27
2018-11-13T18:47:57.878Z,69.83
2018-11-13T18:50:30.598Z,50.53
2018-11-13T18:52:59.319Z,56.70
2018-11-13T18:55:28.098Z,56.87
2018-11-13T18:57:57.057Z,58.10
2018-11-13T19:00:29.957Z,77.67
2018-11-13T19:02:59.330Z,52.97
2018-11-13T19:05:28.254Z,72.50
2018-11-13T19:07:57.134Z,77.17
2018-11-13T19:10:35.848Z,74.83
2018-11-13T19:13:06.453Z,76.20
2018-11-13T19:15:37.580Z,60.83
2018-11-13T19:18:07.159Z,62.43
2018-11-13T19:20:35.785Z,63.33
2018-11-13T19:23:04.674Z,60.93
2018-11-13T19:25:34.362Z,68.77
2018-11-13T19:28:03.088Z,56.33
2018-11-13T19:30:31.749Z,61.40
2018-11-13T19:33:00.942Z,70.57
2018-11-13T19:35:29.724Z,55.50
2018-11-13T19:37:58.233Z,58.70
2018-11-13T19:40:29.186Z,57.47
2018-11-13T19:42:58.871Z,48.70
2018-11-13T19:45:27.542Z,53.10
2018-11-13T19:47:56.185Z,50.93
2018-11-13T19:50:26.345Z,46.40
2018-11-13T19:52:54.980Z,43.73
2018-11-13T19:55:24.498Z,53.20
2018-11-13T19:57:53.216Z,50.87
2018-11-13T20:00:25.282Z,44.73
2018-11-13T20:02:54.939Z,49.37
2018-11-13T20:05:23.669Z,55.03
2018-11-13T20:07:52.333Z,54.27
2018-11-13T20:10:22.323Z,51.43
2018-11-13T20:12:51.823Z,49.87
2018-11-13T20:15:21.462Z,52.10
2018-11-13T20:17:50.109Z,47.63
2018-11-13T20:20:24.192Z,43.90
2018-11-13T20:22:53.851Z,48.23
2018-11-13T20:25:23.770Z,46.73
2018-11-13T20:27:52.461Z,55.80
2018-11-13T20:30:22.613Z,58.83
2018-11-13T20:32:51.294Z,61.17
2018-11-13T20:35:19.911Z,63.43
2018-11-13T20:37:49.134Z,58.83
2018-11-13T20:40:21.565Z,48.40
2018-11-13T20:42:51.463Z,51.70
2018-11-13T20:45:20.317Z,45.33
2018-11-13T20:47:48.959Z,45.03
2018-11-13T20:50:19.736Z,40.13
2018-11-13T20:52:48.616Z,38.27
2018-11-13T20:55:17.717Z,42.97
2018-11-13T20:57:46.393Z,41.30
2018-11-13T21:00:20.363Z,46.67
2018-11-13T21:02:49.508Z,47.23
2018-11-13T21:05:18.401Z,47.37
2018-11-13T21:07:47.134Z,44.83
2018-11-13T21:10:17.422Z,43.57
2018-11-13T21:12:46.545Z,43.83
2018-11-13T21:15:16.575Z,49.63
2018-11-13T21:17:45.369Z,42.27
2018-11-13T21:20:15.241Z,44.57
2018-11-13T21:22:43.862Z,40.00
2018-11-13T21:25:14.256Z,41.87
2018-11-13T21:27:42.913Z,41.33
2018-11-13T21:30:14.115Z,41.07
2018-11-13T21:32:43.453Z,44.00
2018-11-13T21:35:12.790Z,46.20
2018-11-13T21:37:42.798Z,51.20
2018-11-13T21:40:13.424Z,48.73
2018-11-13T21:42:42.368Z,50.60
2018-11-13T21:45:11.929Z,43.83
2018-11-13T21:47:40.651Z,48.57
2018-11-13T21:50:11.081Z,48.07
2018-11-13T21:52:39.775Z,51.33
2018-11-13T21:55:11.273Z,52.37
2018-11-13T21:57:40.013Z,51.67
2018-11-13T22:00:17.032Z,52.37
2018-11-13T22:02:49.125Z,53.70
2018-11-13T22:05:17.793Z,49.93
2018-11-13T22:07:46.681Z,50.87
2018-11-13T22:10:15.343Z,47.63
2018-11-13T22:12:44.676Z,47.07
2018-11-13T22:15:14.933Z,47.10
2018-11-13T22:17:44.191Z,49.17
2018-11-13T22:20:14.471Z,46.53
2018-11-13T22:22:43.183Z,45.27
2018-11-13T22:25:14.305Z,46.30
2018-11-13T22:27:43.471Z,46.03
2018-11-13T22:30:14.183Z,45.87
2018-11-13T22:32:43.346Z,46.37
2018-11-13T22:35:13.121Z,46.33
2018-11-13T22:37:41.709Z,47.93
2018-11-13T22:40:12.968Z,46.00
2018-11-13T22:42:41.698Z,46.50
2018-11-13T22:45:13.812Z,47.27
2018-11-13T22:47:42.512Z,45.30
2018-11-13T22:50:14.137Z,46.37
2018-11-13T22:52:43.543Z,45.17
2018-11-13T22:55:13.047Z,46.70
2018-11-13T22:57:42.681Z,46.63
2018-11-13T23:00:18.605Z,47.60
2018-11-13T23:02:48.591Z,47.20
2018-11-13T23:05:17.210Z,51.70
2018-11-13T23:07:45.869Z,49.50
2018-11-13T23:10:15.093Z,50.47
2018-11-13T23:12:44.337Z,50.30
2018-11-13T23:15:17.504Z,48.80
2018-11-13T23:17:46.161Z,48.60
2018-11-13T23:20:16.218Z,48.70
2018-11-13T23:22:44.901Z,51.70
2018-11-13T23:25:14.661Z,49.20
2018-11-13T23:27:44.097Z,49.40
2018-11-13T23:30:16.096Z,50.10
2018-11-13T23:32:45.136Z,47.53
2018-11-13T23:35:14.336Z,48.27
2018-11-13T23:37:44.010Z,48.47
2018-11-13T23:40:15.809Z,50.07
2018-11-13T23:42:44.748Z,48.13
2018-11-13T23:45:14.413Z,46.97
2018-11-13T23:47:43.509Z,46.07
2018-11-13T23:50:12.512Z,46.47
2018-11-13T23:52:41.336Z,45.57
2018-11-13T23:55:11.233Z,43.53
2018-11-13T23:57:40.199Z,43.53
